Time;durP1;ratioP1;P1;durP2;ratioP2;P2;SDS_P1;SDS_P2;PMS_P1;PMS_P2;Temp;Humidity;BMP_temperature;BMP_pressure;BME280_temperature;BME280_humidity;BME280_pressure;Samples;Min_cycle;Max_cycle;Signal;HPM_P1;HPM_P2
2021/08/29 00:01:50;;;;;;;13.43;6.03;;;;;;;22.86;68.97;100442.36;1722831;81;21009;-61
2021/08/29 00:04:17;;;;;;;11.75;6.40;;;;;;;22.82;69.35;100435.98;1735631;81;21115;-60
2021/08/29 00:06:45;;;;;;;10.68;6.00;;;;;;;22.79;69.62;100454.88;1723980;81;21053;-61
2021/08/29 00:09:12;;;;;;;11.10;6.20;;;;;;;22.77;69.75;100435.03;1721096;81;21065;-61
2021/08/29 00:11:39;;;;;;;10.95;5.90;;;;;;;22.75;70.14;100445.23;1729245;81;21519;-61
2021/08/29 00:14:06;;;;;;;16.07;6.45;;;;;;;22.73;70.47;100441.78;1722815;82;21116;-61
2021/08/29 00:16:37;;;;;;;7.83;6.05;;;;;;;22.72;70.62;100432.70;1728432;81;21453;-60
2021/08/29 00:19:05;;;;;;;12.35;6.28;;;;;;;22.73;70.76;100439.90;1791641;78;21147;-59
2021/08/29 00:21:31;;;;;;;11.00;6.67;;;;;;;22.73;70.85;100431.70;1795221;79;21462;-61
2021/08/29 00:24:00;;;;;;;9.30;6.30;;;;;;;22.69;71.05;100436.24;1786942;78;20950;-61
2021/08/29 00:26:27;;;;;;;7.97;6.22;;;;;;;22.63;71.51;100433.56;1799641;78;21085;-61
2021/08/29 00:28:54;;;;;;;10.00;6.30;;;;;;;22.60;71.79;100427.87;1799086;78;21047;-62
2021/08/29 00:31:21;;;;;;;8.35;5.90;;;;;;;22.60;71.94;100421.04;1790600;78;21111;-62
2021/08/29 00:33:49;;;;;;;8.68;6.05;;;;;;;22.60;72.12;100422.92;1786003;78;21055;-61
2021/08/29 00:36:16;;;;;;;13.15;6.55;;;;;;;22.58;72.20;100428.52;1789768;78;21075;-60
2021/08/29 00:38:43;;;;;;;9.90;6.65;;;;;;;22.59;72.29;100408.38;1786745;79;22053;-60
2021/08/29 00:41:10;;;;;;;11.95;6.60;;;;;;;22.59;72.37;100405.66;1785715;78;21103;-62
2021/08/29 00:46:15;;;;;;;14.83;6.67;;;;;;;22.54;72.66;100405.22;1786452;78;21579;-60
2021/08/29 00:48:53;;;;;;;8.50;6.40;;;;;;;22.49;73.06;100392.98;1790079;78;21107;-60
2021/08/29 00:51:20;;;;;;;11.15;6.33;;;;;;;22.47;73.37;100393.14;1788818;78;21974;-61
2021/08/29 00:53:52;;;;;;;10.78;6.35;;;;;;;22.45;73.71;100403.31;1790571;78;21068;-58
2021/08/29 00:56:20;;;;;;;8.23;5.90;;;;;;;22.44;73.78;100391.50;1788879;79;21080;-60
2021/08/29 00:58:50;;;;;;;11.10;6.65;;;;;;;22.44;74.06;100386.56;1793204;78;21008;-60
2021/08/29 01:01:19;;;;;;;9.83;7.15;;;;;;;22.39;74.39;100387.45;1791189;79;21536;-60
2021/08/29 01:03:47;;;;;;;13.40;6.65;;;;;;;22.37;74.84;100388.98;1786977;79;21056;-59
2021/08/29 01:06:27;;;;;;;13.68;6.87;;;;;;;22.38;75.08;100384.37;1783336;78;21131;-59
2021/08/29 01:09:06;;;;;;;10.20;6.20;;;;;;;22.38;75.26;100388.47;1794798;78;21758;-62
2021/08/29 01:11:34;;;;;;;11.45;6.28;;;;;;;22.32;75.46;100382.56;1745296;79;20957;-61
2021/08/29 01:14:12;;;;;;;10.45;6.62;;;;;;;22.31;75.78;100387.66;1794918;78;21110;-61
2021/08/29 01:16:39;;;;;;;12.07;7.05;;;;;;;22.30;76.32;100392.77;1783572;78;21069;-60
2021/08/29 01:19:15;;;;;;;10.13;6.70;;;;;;;22.29;76.77;100390.16;1799694;78;21044;-61
2021/08/29 01:21:45;;;;;;;10.18;6.30;;;;;;;22.25;77.19;100385.98;1797323;78;20984;-60
2021/08/29 01:24:16;;;;;;;14.18;6.62;;;;;;;22.24;77.72;100404.73;1735090;81;20969;-60
2021/08/29 01:27:12;;;;;;;12.43;6.58;;;;;;;22.24;78.04;100386.98;1759641;80;21486;-61
2021/08/29 01:29:40;;;;;;;12.60;6.87;;;;;;;22.21;78.21;100372.26;1716392;82;21205;-61
2021/08/29 01:32:08;;;;;;;11.22;6.75;;;;;;;22.15;78.60;100369.57;1732088;81;21486;-61
2021/08/29 01:34:37;;;;;;;10.23;7.00;;;;;;;22.13;78.95;100365.63;1735520;81;21143;-61
2021/08/29 01:37:22;;;;;;;13.17;6.80;;;;;;;22.10;79.22;100361.79;1733097;81;21048;-61
2021/08/29 01:39:51;;;;;;;12.10;6.92;;;;;;;22.06;79.69;100357.61;1736411;81;21052;-60
2021/08/29 01:42:20;;;;;;;16.12;8.10;;;;;;;22.02;79.72;100354.32;1729893;81;21335;-59
2021/08/29 01:44:47;;;;;;;12.73;6.70;;;;;;;22.00;80.28;100356.33;1756208;80;21099;-58
2021/08/29 01:47:19;;;;;;;11.78;6.92;;;;;;;22.01;81.03;100352.59;1751438;80;21103;-59
2021/08/29 01:49:48;;;;;;;9.90;7.42;;;;;;;22.00;82.01;100350.87;1741244;81;21105;-59
2021/08/29 01:52:16;;;;;;;11.95;7.90;;;;;;;21.98;82.75;100357.45;1758526;80;21017;-60
2021/08/29 01:54:51;;;;;;;12.20;6.95;;;;;;;21.97;83.51;100334.74;1694873;81;21977;-59
2021/08/29 01:57:20;;;;;;;14.07;7.78;;;;;;;21.98;84.06;100332.37;1737176;81;21075;-62
2021/08/29 01:59:58;;;;;;;16.02;7.92;;;;;;;22.02;84.48;100329.75;1742059;82;21522;-62
2021/08/29 02:02:25;;;;;;;13.78;8.35;;;;;;;22.02;85.05;100325.66;1743089;80;21563;-61
2021/08/29 02:04:52;;;;;;;14.35;7.97;;;;;;;22.05;85.50;100328.59;1744209;81;21085;-60
2021/08/29 02:07:42;;;;;;;13.75;8.28;;;;;;;22.08;85.81;100330.19;1766805;80;21199;-60
2021/08/29 02:10:12;;;;;;;17.27;8.35;;;;;;;22.11;86.49;100326.70;1735495;81;21497;-59
2021/08/29 02:12:50;;;;;;;15.20;9.63;;;;;;;22.11;86.92;100328.06;1740643;81;21047;-59
2021/08/29 02:15:28;;;;;;;15.03;8.68;;;;;;;22.10;88.46;100325.45;1728619;80;21024;-61
2021/08/29 02:17:56;;;;;;;14.95;9.18;;;;;;;22.12;89.99;100319.35;1722883;82;21564;-59
2021/08/29 02:20:25;;;;;;;14.38;9.50;;;;;;;22.13;90.75;100327.91;1756177;80;21108;-60
2021/08/29 02:22:53;;;;;;;19.20;9.43;;;;;;;22.14;91.34;100335.09;1734331;81;21512;-61
2021/08/29 02:25:21;;;;;;;15.35;9.60;;;;;;;22.15;91.70;100334.08;1754242;80;21107;-58
2021/08/29 02:27:49;;;;;;;16.20;8.90;;;;;;;22.19;92.22;100325.97;1737366;81;21127;-61
2021/08/29 02:30:16;;;;;;;13.43;8.95;;;;;;;22.25;92.37;100331.38;1738399;81;21458;-59
2021/08/29 02:32:43;;;;;;;14.65;8.58;;;;;;;22.29;92.28;100325.50;1709118;81;21119;-59
2021/08/29 02:35:10;;;;;;;20.02;8.93;;;;;;;22.35;92.22;100324.58;1739007;81;21120;-59
2021/08/29 02:37:43;;;;;;;17.40;9.28;;;;;;;22.39;92.08;100320.06;1727235;81;21080;-60
2021/08/29 02:40:12;;;;;;;13.05;9.20;;;;;;;22.38;92.15;100322.92;1750073;80;21064;-59
2021/08/29 02:42:40;;;;;;;14.30;9.85;;;;;;;22.39;92.62;100325.52;1737330;81;22460;-61
2021/08/29 02:45:11;;;;;;;13.90;9.58;;;;;;;22.36;92.53;100323.08;1739584;80;21148;-60
2021/08/29 02:47:39;;;;;;;15.25;10.50;;;;;;;22.33;92.87;100321.48;1757630;80;21048;-59
2021/08/29 02:50:08;;;;;;;16.05;9.40;;;;;;;22.31;93.39;100320.77;1739175;81;21123;-59
2021/08/29 02:52:40;;;;;;;13.95;9.65;;;;;;;22.28;93.82;100327.88;1736758;81;21112;-59
2021/08/29 02:55:08;;;;;;;16.80;10.03;;;;;;;22.26;94.06;100317.60;1734087;81;21104;-59
2021/08/29 02:57:37;;;;;;;13.15;9.73;;;;;;;22.27;94.63;100319.33;1714360;82;21115;-59
2021/08/29 03:00:24;;;;;;;16.20;10.08;;;;;;;22.27;94.49;100318.45;1755801;80;21092;-58
2021/08/29 03:02:53;;;;;;;16.00;10.00;;;;;;;22.28;94.49;100311.50;1744972;80;21088;-60
2021/08/29 03:05:27;;;;;;;15.75;10.23;;;;;;;22.29;94.88;100317.31;1743584;80;21099;-59
2021/08/29 03:07:54;;;;;;;18.37;10.50;;;;;;;22.32;95.21;100313.42;1722406;82;21104;-60
2021/08/29 03:10:22;;;;;;;20.10;10.53;;;;;;;22.34;95.44;100319.63;1739954;81;22372;-60
2021/08/29 03:12:51;;;;;;;22.95;10.98;;;;;;;22.35;95.35;100320.48;1737690;81;20957;-61
2021/08/29 03:15:30;;;;;;;14.60;10.28;;;;;;;22.33;95.53;100318.75;1697724;80;21169;-58
2021/08/29 03:17:59;;;;;;;15.53;10.20;;;;;;;22.35;95.78;100310.92;1721617;81;21040;-60
2021/08/29 03:20:26;;;;;;;16.67;10.90;;;;;;;22.38;96.02;100313.36;1771200;79;21394;-59
2021/08/29 03:22:54;;;;;;;16.77;10.68;;;;;;;22.40;96.22;100307.25;1749200;79;21101;-59
2021/08/29 03:25:21;;;;;;;16.37;10.98;;;;;;;22.42;95.88;100301.14;1768151;79;20978;-59
2021/08/29 03:27:49;;;;;;;19.20;10.80;;;;;;;22.41;95.80;100308.98;1768587;79;20986;-58
2021/08/29 03:30:17;;;;;;;15.58;10.88;;;;;;;22.41;95.99;100304.88;1742461;79;21169;-59
2021/08/29 03:32:44;;;;;;;16.00;11.12;;;;;;;22.40;96.19;100301.31;1776183;79;21167;-59
2021/08/29 03:35:14;;;;;;;19.60;10.72;;;;;;;22.38;96.68;100306.53;1771488;79;21368;-61
2021/08/29 03:37:44;;;;;;;19.87;11.03;;;;;;;22.40;97.55;100304.52;1773985;79;21037;-59
2021/08/29 03:40:13;;;;;;;16.80;10.45;;;;;;;22.48;97.84;100312.92;1744392;79;21053;-61
2021/08/29 03:42:40;;;;;;;15.25;10.63;;;;;;;22.52;97.80;100309.38;1779197;79;21057;-59
2021/08/29 03:45:23;;;;;;;15.93;11.12;;;;;;;22.53;98.20;100293.36;1772743;79;21484;-59
2021/08/29 03:47:52;;;;;;;18.05;11.95;;;;;;;22.56;98.75;100283.02;1747641;79;21179;-59
2021/08/29 03:50:24;;;;;;;19.48;11.88;;;;;;;22.63;99.42;100285.16;1758891;79;21013;-58
2021/08/29 03:52:51;;;;;;;19.48;11.15;;;;;;;22.73;99.23;100273.22;1738543;80;21068;-60
2021/08/29 03:55:20;;;;;;;16.82;11.38;;;;;;;22.81;98.28;100279.33;1764016;79;21098;-60
2021/08/29 03:57:50;;;;;;;15.58;11.68;;;;;;;22.88;98.09;100279.12;1766213;79;21092;-60
2021/08/29 04:00:19;;;;;;;19.05;11.28;;;;;;;22.96;97.76;100283.00;1770529;79;21115;-59
2021/08/29 04:02:49;;;;;;;18.37;11.08;;;;;;;22.99;97.63;100274.50;1748801;79;21092;-59
2021/08/29 04:05:24;;;;;;;15.28;11.35;;;;;;;23.04;97.16;100287.22;1769591;79;21114;-59
2021/08/29 04:07:51;;;;;;;16.82;11.68;;;;;;;23.06;97.45;100259.74;1735044;79;21498;-60
2021/08/29 04:10:20;;;;;;;18.05;11.75;;;;;;;23.08;97.55;100268.66;1773134;79;21490;-60
2021/08/29 04:12:50;;;;;;;20.82;11.57;;;;;;;23.10;97.27;100268.88;1771485;79;21088;-60
2021/08/29 04:15:36;;;;;;;16.75;11.18;;;;;;;23.10;97.34;100262.53;1771029;79;20994;-59
2021/08/29 04:18:07;;;;;;;17.27;11.75;;;;;;;23.11;97.69;100269.73;1731375;78;21092;-60
2021/08/29 04:20:34;;;;;;;14.45;11.68;;;;;;;23.13;97.13;100268.58;1778162;78;21544;-59
2021/08/29 04:23:04;;;;;;;18.17;11.88;;;;;;;23.20;97.22;100266.09;1746827;78;21071;-58
2021/08/29 04:25:34;;;;;;;20.02;11.93;;;;;;;23.28;96.87;100259.92;1773677;78;22075;-59
2021/08/29 04:28:01;;;;;;;19.95;11.68;;;;;;;23.32;96.83;100258.60;1769869;78;21737;-60
2021/08/29 04:30:29;;;;;;;19.27;12.58;;;;;;;23.39;96.73;100262.48;1774562;78;21095;-60
2021/08/29 04:32:58;;;;;;;22.82;12.30;;;;;;;23.41;96.47;100260.45;1711794;82;21120;-60
2021/08/29 04:35:43;;;;;;;19.25;12.18;;;;;;;23.40;96.81;100262.84;1742501;80;21073;-59
2021/08/29 04:38:16;;;;;;;17.52;11.65;;;;;;;23.48;97.25;100262.59;1731359;81;21862;-59
2021/08/29 04:40:43;;;;;;;17.48;11.57;;;;;;;23.58;97.25;100253.33;1725456;81;21038;-59
2021/08/29 04:43:11;;;;;;;18.73;11.68;;;;;;;23.68;96.85;100255.17;1727555;81;21565;-59
2021/08/29 04:45:38;;;;;;;16.75;12.53;;;;;;;23.80;96.37;100262.15;1778012;78;21044;-59
2021/08/29 04:48:07;;;;;;;18.80;12.43;;;;;;;23.93;96.00;100264.52;1775188;80;21115;-60
2021/08/29 04:50:35;;;;;;;19.17;11.38;;;;;;;24.05;95.19;100258.36;1773435;80;21076;-58
2021/08/29 04:53:05;;;;;;;20.92;11.40;;;;;;;24.16;94.82;100242.22;1775826;78;21114;-57
2021/08/29 04:55:32;;;;;;;20.00;12.68;;;;;;;24.25;94.48;100253.63;1773124;78;21495;-59
2021/08/29 04:57:59;;;;;;;15.70;11.12;;;;;;;24.29;93.91;100249.55;1778183;78;21373;-57
2021/08/29 05:00:28;;;;;;;18.23;11.60;;;;;;;24.26;93.87;100252.61;1768962;78;21162;-58
2021/08/29 05:02:57;;;;;;;13.80;10.80;;;;;;;24.23;93.66;100254.30;1769901;78;21135;-59
2021/08/29 05:05:24;;;;;;;20.62;10.68;;;;;;;24.21;93.20;100257.70;1741787;80;21118;-57
2021/08/29 05:07:59;;;;;;;14.47;9.75;;;;;;;24.27;92.34;100250.22;1774694;78;21051;-58
2021/08/29 05:10:27;;;;;;;13.48;9.35;;;;;;;24.41;92.32;100247.94;1779958;79;20940;-58
2021/08/29 05:12:58;;;;;;;14.43;9.75;;;;;;;24.55;91.50;100239.17;1730116;81;21041;-60
2021/08/29 05:15:25;;;;;;;13.60;9.93;;;;;;;24.68;90.71;100233.28;1775704;78;21128;-59
2021/08/29 05:17:52;;;;;;;17.62;10.53;;;;;;;24.79;90.01;100229.46;1776559;79;21530;-58
2021/08/29 05:20:21;;;;;;;12.98;9.88;;;;;;;24.94;88.77;100217.92;1784727;79;21040;-58
2021/08/29 05:22:58;;;;;;;16.55;10.05;;;;;;;25.11;88.18;100221.62;1677224;83;21426;-60
2021/08/29 05:25:45;;;;;;;17.23;9.25;;;;;;;25.30;87.35;100213.66;1786781;79;20950;-60
2021/08/29 05:28:12;;;;;;;13.18;8.80;;;;;;;25.50;85.79;100210.70;1789063;79;21133;-58
2021/08/29 05:30:40;;;;;;;13.22;9.18;;;;;;;25.63;83.61;100215.73;1781893;79;21048;-58
2021/08/29 05:33:08;;;;;;;16.07;9.00;;;;;;;25.75;82.90;100213.05;1770751;79;21073;-59
2021/08/29 05:35:36;;;;;;;13.50;8.23;;;;;;;25.95;80.55;100220.47;1792294;79;21527;-59
2021/08/29 05:38:03;;;;;;;13.55;7.42;;;;;;;26.08;79.36;100219.13;1787677;79;21422;-58
2021/08/29 05:40:45;;;;;;;12.80;7.80;;;;;;;26.17;77.73;100222.27;1746373;79;22517;-58
2021/08/29 05:43:31;;;;;;;10.48;7.95;;;;;;;26.27;76.58;100215.23;1785179;79;21502;-59
2021/08/29 05:46:00;;;;;;;19.87;8.48;;;;;;;26.39;75.58;100219.88;1720801;81;21031;-60
2021/08/29 05:48:26;;;;;;;17.12;7.37;;;;;;;26.41;74.70;100216.45;1731911;80;21065;-60
2021/08/29 05:50:54;;;;;;;11.30;7.50;;;;;;;26.37;73.87;100232.44;1728143;82;21089;-59
2021/08/29 05:53:21;;;;;;;11.55;8.00;;;;;;;26.31;73.94;100240.84;1714896;82;21120;-59
2021/08/29 05:55:50;;;;;;;11.70;7.35;;;;;;;26.25;73.62;100225.04;1741708;81;21156;-59
2021/08/29 05:58:17;;;;;;;9.28;7.55;;;;;;;26.15;74.09;100221.55;1720875;81;21483;-58
2021/08/29 06:00:44;;;;;;;16.05;7.90;;;;;;;26.06;74.20;100201.44;1727349;82;21069;-59
2021/08/29 06:03:13;;;;;;;12.55;7.40;;;;;;;26.06;74.86;100198.69;1718191;82;21085;-60
2021/08/29 06:05:41;;;;;;;14.55;7.97;;;;;;;26.10;75.22;100205.59;1725211;82;21530;-60
2021/08/29 06:08:10;;;;;;;15.98;8.15;;;;;;;26.16;74.91;100213.17;1733333;81;21433;-58
2021/08/29 06:10:38;;;;;;;12.05;7.20;;;;;;;26.21;73.86;100204.44;1717688;81;21061;-58
2021/08/29 06:13:05;;;;;;;14.35;7.45;;;;;;;26.21;73.18;100203.06;1719250;81;21108;-58
2021/08/29 06:15:34;;;;;;;18.48;7.67;;;;;;;26.18;73.06;100202.00;1716388;81;20958;-58
2021/08/29 06:18:03;;;;;;;10.40;7.62;;;;;;;26.17;72.84;100215.39;1733938;81;20983;-59
2021/08/29 06:20:30;;;;;;;14.98;7.67;;;;;;;26.21;72.61;100206.31;1731520;81;21023;-59
2021/08/29 06:22:57;;;;;;;14.60;7.40;;;;;;;26.26;72.91;100207.53;1752061;81;21384;-58
2021/08/29 06:25:43;;;;;;;21.70;8.03;;;;;;;26.28;72.91;100205.97;1749784;81;20960;-60
2021/08/29 06:28:28;;;;;;;12.50;7.87;;;;;;;26.30;72.71;100203.41;1776500;80;20991;-60
2021/08/29 06:31:14;;;;;;;13.70;6.87;;;;;;;26.33;72.23;100201.34;1743834;81;21831;-58
2021/08/29 06:33:55;;;;;;;13.75;7.60;;;;;;;26.42;71.03;100189.34;1802611;78;21074;-60
2021/08/29 06:36:24;;;;;;;13.50;8.33;;;;;;;26.42;71.59;100182.47;1809225;78;21108;-58
2021/08/29 06:38:57;;;;;;;15.50;7.72;;;;;;;26.44;71.44;100188.66;1800821;78;21633;-58
2021/08/29 06:41:21;;;;;;;16.60;8.38;;;;;;;26.41;71.41;100182.09;1801939;78;21036;-59
2021/08/29 06:43:48;;;;;;;12.30;7.58;;;;;;;26.40;71.65;100174.89;1801254;78;21529;-59
2021/08/29 06:46:35;;;;;;;14.25;7.85;;;;;;;26.38;71.45;100167.33;1698969;83;21119;-61
2021/08/29 06:49:20;;;;;;;10.93;7.47;;;;;;;26.38;71.90;100156.34;1698167;84;21074;-60
2021/08/29 06:52:01;;;;;;;18.25;7.85;;;;;;;26.40;72.19;100162.02;1720451;78;21083;-60
2021/08/29 06:54:46;;;;;;;14.60;7.30;;;;;;;26.47;72.55;100142.96;1806456;78;21051;-59
2021/08/29 06:57:32;;;;;;;14.60;8.08;;;;;;;26.52;72.42;100145.16;1799572;78;21132;-59
2021/08/29 06:59:59;;;;;;;17.75;8.60;;;;;;;26.54;72.17;100148.09;1800223;78;21079;-59
2021/08/29 07:02:26;;;;;;;14.23;8.40;;;;;;;26.56;72.14;100146.03;1811216;78;21484;-61
2021/08/29 07:04:53;;;;;;;15.32;8.58;;;;;;;26.58;72.41;100153.58;1803249;78;21519;-60
2021/08/29 07:07:20;;;;;;;19.77;8.55;;;;;;;26.64;72.51;100148.41;1800142;78;21110;-60
2021/08/29 07:09:50;;;;;;;14.80;7.97;;;;;;;26.69;72.53;100157.02;1782280;78;21484;-58
2021/08/29 07:12:17;;;;;;;16.57;8.95;;;;;;;26.67;72.47;100143.44;1806581;78;21076;-59
2021/08/29 07:15:06;;;;;;;16.20;9.33;;;;;;;26.65;72.67;100140.54;1804735;78;21019;-59
2021/08/29 07:17:34;;;;;;;14.65;9.08;;;;;;;26.67;72.98;100143.97;1808190;78;21044;-58
2021/08/29 07:20:01;;;;;;;11.03;8.95;;;;;;;26.64;73.02;100138.80;1772618;79;21044;-59
2021/08/29 07:22:49;;;;;;;14.50;9.23;;;;;;;26.55;73.37;100141.56;1726518;82;21028;-59
2021/08/29 07:25:35;;;;;;;21.93;9.98;;;;;;;26.45;73.59;100123.05;1781560;79;21066;-58
2021/08/29 07:28:05;;;;;;;12.37;9.43;;;;;;;26.39;74.25;100120.96;1772545;79;21079;-59
2021/08/29 07:30:51;;;;;;;18.27;10.18;;;;;;;26.31;74.89;100103.46;1788112;79;21044;-60
2021/08/29 07:33:20;;;;;;;19.15;9.48;;;;;;;26.26;75.83;100093.52;1773295;79;21075;-59
2021/08/29 07:35:49;;;;;;;17.73;9.70;;;;;;;26.21;75.63;100098.67;1785326;79;21813;-59
2021/08/29 07:38:25;;;;;;;15.65;9.28;;;;;;;26.20;76.09;100091.97;1769918;79;21493;-58
2021/08/29 07:41:10;;;;;;;17.90;9.78;;;;;;;26.28;75.98;100102.94;1778016;79;21010;-60
2021/08/29 07:43:39;;;;;;;15.70;9.40;;;;;;;26.31;75.95;100096.59;1778163;79;21390;-58
2021/08/29 07:46:08;;;;;;;23.75;10.20;;;;;;;26.30;75.85;100111.36;1771736;79;21814;-58
2021/08/29 07:48:35;;;;;;;15.03;9.55;;;;;;;26.32;76.12;100112.58;1756001;79;21048;-59
2021/08/29 07:51:02;;;;;;;14.95;9.65;;;;;;;26.39;75.79;100140.20;1775079;79;21068;-59
2021/08/29 07:53:31;;;;;;;20.15;10.15;;;;;;;26.42;75.65;100130.27;1776859;79;21006;-59
2021/08/29 07:56:15;;;;;;;19.80;10.15;;;;;;;26.43;75.71;100131.98;1689226;84;21132;-59
2021/08/29 07:58:44;;;;;;;27.35;9.88;;;;;;;26.44;75.72;100144.15;1755921;79;21079;-59
2021/08/29 08:01:13;;;;;;;20.20;9.70;;;;;;;26.43;75.60;100130.61;1774653;79;21137;-58
2021/08/29 08:03:41;;;;;;;18.90;10.40;;;;;;;26.41;75.44;100127.14;1772542;79;21385;-59
2021/08/29 08:06:10;;;;;;;16.62;9.93;;;;;;;26.41;75.47;100118.90;1778713;79;21606;-59
2021/08/29 08:08:49;;;;;;;19.60;10.23;;;;;;;26.39;75.73;100118.22;1771941;79;22215;-59
2021/08/29 08:11:31;;;;;;;19.17;10.50;;;;;;;26.42;75.04;100113.77;1773416;79;21084;-59
2021/08/29 08:13:59;;;;;;;23.15;10.90;;;;;;;26.41;74.28;100115.65;1787069;79;21114;-60
2021/08/29 08:16:25;;;;;;;17.25;11.38;;;;;;;26.38;73.95;100101.39;1784399;79;21037;-59
2021/08/29 08:19:14;;;;;;;17.70;11.08;;;;;;;26.31;74.65;100088.88;1779784;79;21032;-59
2021/08/29 08:21:42;;;;;;;17.45;10.65;;;;;;;26.26;75.26;100082.52;1786636;79;21549;-59
2021/08/29 08:24:27;;;;;;;20.08;10.93;;;;;;;26.26;76.10;100090.77;1783421;79;21065;-60
2021/08/29 08:27:13;;;;;;;16.57;10.58;;;;;;;26.29;76.45;100091.79;1777865;79;21930;-60
2021/08/29 08:29:59;;;;;;;24.72;11.57;;;;;;;26.36;76.63;100097.95;1779222;79;21060;-60
2021/08/29 08:32:44;;;;;;;23.83;10.58;;;;;;;26.39;76.38;100097.11;1783243;79;21387;-58
2021/08/29 08:35:16;;;;;;;17.82;11.48;;;;;;;26.42;76.18;100100.03;1765861;79;21076;-59
2021/08/29 08:37:51;;;;;;;15.83;11.55;;;;;;;26.41;76.00;100097.79;1735359;79;21032;-58
2021/08/29 08:40:40;;;;;;;17.20;11.53;;;;;;;26.43;75.63;100102.59;1780959;79;21068;-58
2021/08/29 08:43:12;;;;;;;20.97;11.53;;;;;;;26.47;75.41;100108.61;1727491;79;21091;-60
2021/08/29 08:45:59;;;;;;;28.47;12.50;;;;;;;26.56;74.89;100124.04;1691036;83;21728;-58
2021/08/29 08:48:44;;;;;;;18.70;11.25;;;;;;;26.65;74.68;100121.30;1764914;79;21103;-60
2021/08/29 08:51:32;;;;;;;19.65;10.93;;;;;;;26.79;74.20;100125.22;1781936;79;21096;-59
2021/08/29 08:54:11;;;;;;;16.93;11.50;;;;;;;26.86;73.18;100128.50;1785875;79;21175;-58
2021/08/29 08:56:56;;;;;;;14.53;10.63;;;;;;;26.91;73.25;100133.98;1788463;79;21394;-58
2021/08/29 09:02:34;;;;;;;22.50;11.40;;;;;;;26.94;74.64;100122.09;1785236;79;21498;-58
2021/08/29 09:05:05;;;;;;;18.42;11.70;;;;;;;26.94;74.54;100114.38;1780891;79;21053;-59
2021/08/29 09:07:33;;;;;;;22.22;11.08;;;;;;;26.88;74.73;100108.55;1774305;79;21516;-58
2021/08/29 09:10:01;;;;;;;19.77;11.45;;;;;;;26.83;74.75;100105.41;1779669;79;21027;-59
2021/08/29 09:12:31;;;;;;;23.02;11.63;;;;;;;26.84;74.35;100109.88;1791208;79;20985;-59
2021/08/29 09:14:58;;;;;;;15.53;11.30;;;;;;;26.91;74.17;100121.61;1791504;79;21825;-58
2021/08/29 09:17:39;;;;;;;21.40;10.68;;;;;;;27.06;72.97;100113.47;1785028;79;21585;-59
2021/08/29 09:20:28;;;;;;;17.87;11.10;;;;;;;27.20;72.23;100115.98;1785928;79;21529;-59
2021/08/29 09:23:05;;;;;;;19.30;12.15;;;;;;;27.34;71.33;100116.62;1780037;79;21009;-58
2021/08/29 09:25:44;;;;;;;18.15;11.10;;;;;;;27.54;71.25;100118.43;1786084;79;21478;-60
2021/08/29 09:28:25;;;;;;;18.10;12.65;;;;;;;27.71;70.56;100120.55;1786837;79;21068;-59
2021/08/29 09:30:58;;;;;;;17.80;11.75;;;;;;;27.89;70.01;100104.27;1781632;79;21040;-58
2021/08/29 09:33:31;;;;;;;22.05;12.33;;;;;;;27.97;69.91;100106.98;1767951;79;21561;-59
2021/08/29 09:35:59;;;;;;;18.65;11.65;;;;;;;28.03;69.10;100093.83;1781307;79;20910;-59
2021/08/29 09:38:44;;;;;;;16.02;11.88;;;;;;;28.06;68.30;100086.23;1779395;79;20984;-60
2021/08/29 09:41:24;;;;;;;22.75;12.03;;;;;;;28.10;67.50;100090.33;1780145;79;21020;-60
2021/08/29 09:43:53;;;;;;;18.00;11.85;;;;;;;28.15;66.47;100087.87;1733176;79;20997;-60
2021/08/29 09:46:21;;;;;;;22.07;13.05;;;;;;;28.19;65.79;100076.86;1784114;79;21097;-58
2021/08/29 09:49:07;;;;;;;16.52;12.15;;;;;;;28.23;65.49;100089.22;1781336;79;21087;-59
2021/08/29 09:51:55;;;;;;;17.67;12.37;;;;;;;28.25;64.36;100080.24;1780309;79;21513;-60
2021/08/29 09:54:43;;;;;;;23.32;12.43;;;;;;;28.22;64.22;100082.00;1759677;79;21071;-59
2021/08/29 09:57:31;;;;;;;18.27;12.05;;;;;;;28.20;63.60;100085.47;1793969;79;21056;-58
2021/08/29 10:00:10;;;;;;;18.45;12.68;;;;;;;28.20;63.28;100079.08;1760240;79;21169;-59
2021/08/29 10:02:42;;;;;;;24.02;13.55;;;;;;;28.18;62.73;100079.25;1791570;79;21408;-60
2021/08/29 10:05:17;;;;;;;17.62;12.80;;;;;;;28.20;62.29;100071.69;1776364;79;21691;-60
2021/08/29 10:08:08;;;;;;;25.15;12.55;;;;;;;28.23;61.99;100060.29;1785335;79;21616;-60
2021/08/29 10:10:40;;;;;;;17.87;12.15;;;;;;;28.23;61.80;100071.31;1787667;79;21039;-59
2021/08/29 10:13:08;;;;;;;17.65;12.45;;;;;;;28.23;60.72;100057.53;1788626;79;21804;-59
2021/08/29 10:15:36;;;;;;;19.20;13.15;;;;;;;28.25;61.05;100052.69;1728947;82;21044;-61
2021/08/29 10:18:22;;;;;;;23.80;12.47;;;;;;;28.33;60.85;100056.39;1720866;81;21088;-59
2021/08/29 10:21:10;;;;;;;20.60;12.55;;;;;;;28.37;60.41;100067.37;1753659;81;21107;-60
2021/08/29 10:23:42;;;;;;;19.07;12.40;;;;;;;28.38;60.16;100060.81;1764706;80;21530;-60
2021/08/29 10:26:10;;;;;;;19.80;12.55;;;;;;;28.42;60.10;100055.28;1734513;81;21655;-60
2021/08/29 10:29:08;;;;;;;19.23;12.55;;;;;;;28.47;60.09;100050.56;1709725;80;21185;-60
2021/08/29 10:32:06;;;;;;;15.20;11.80;;;;;;;28.54;59.62;100065.33;1717795;81;21121;-61
2021/08/29 10:34:37;;;;;;;19.15;11.88;;;;;;;28.56;59.55;100054.42;1769191;80;21031;-61
2021/08/29 10:37:04;;;;;;;17.42;12.28;;;;;;;28.62;59.36;100054.70;1769787;80;21092;-60
2021/08/29 10:39:49;;;;;;;17.15;11.35;;;;;;;28.65;58.72;100049.67;1752925;81;21212;-61
2021/08/29 10:42:20;;;;;;;20.12;12.55;;;;;;;28.62;59.09;100041.79;1732570;81;21446;-60
2021/08/29 10:45:06;;;;;;;17.75;11.83;;;;;;;28.60;59.26;100047.48;1752713;81;21061;-62
2021/08/29 10:47:45;;;;;;;23.27;13.40;;;;;;;28.58;59.02;100048.19;1695943;83;21051;-61
2021/08/29 10:50:18;;;;;;;17.77;11.83;;;;;;;28.57;58.73;100053.38;1690449;81;21096;-63
2021/08/29 10:52:46;;;;;;;16.07;12.35;;;;;;;28.59;58.82;100052.66;1745009;80;21482;-60
2021/08/29 10:55:15;;;;;;;19.87;12.90;;;;;;;28.65;58.56;100051.59;1769360;80;21073;-60
2021/08/29 10:57:43;;;;;;;21.50;13.30;;;;;;;28.69;58.56;100042.73;1713826;80;20952;-60
2021/08/29 11:00:23;;;;;;;18.57;12.85;;;;;;;28.74;58.39;100049.06;1756350;80;21083;-62
2021/08/29 11:02:51;;;;;;;19.57;12.90;;;;;;;28.78;58.16;100042.65;1749067;80;21711;-61
2021/08/29 11:05:49;;;;;;;17.37;12.70;;;;;;;28.81;58.48;100045.89;1764980;80;21021;-61
2021/08/29 11:08:26;;;;;;;24.05;12.53;;;;;;;28.83;58.56;100042.95;1741366;80;21120;-61
2021/08/29 11:10:53;;;;;;;15.72;12.40;;;;;;;28.87;58.81;100038.77;1766862;80;21095;-61
2021/08/29 11:13:34;;;;;;;17.62;12.30;;;;;;;28.93;57.92;100044.05;1743084;80;21058;-62
2021/08/29 11:16:17;;;;;;;21.00;12.30;;;;;;;28.94;57.61;100038.31;1744628;80;20982;-61
2021/08/29 11:21:22;;;;;;;18.55;12.45;;;;;;;28.99;57.48;100040.00;1751414;81;21027;-61
2021/08/29 11:23:54;;;;;;;24.32;14.03;;;;;;;29.00;57.07;100027.05;1679716;81;21068;-61
2021/08/29 11:26:32;;;;;;;16.00;12.70;;;;;;;29.03;57.22;100034.93;1745143;81;21031;-62
2021/08/29 11:29:50;;;;;;;17.85;13.48;;;;;;;28.99;57.61;100034.99;1739805;81;21051;-61
2021/08/29 11:32:36;;;;;;;17.35;12.98;;;;;;;29.01;57.29;100037.03;1767767;80;21738;-62
2021/08/29 11:35:23;;;;;;;17.35;14.00;;;;;;;28.99;57.34;100035.86;1764876;80;21483;-62
2021/08/29 11:38:23;;;;;;;24.85;14.23;;;;;;;29.00;57.76;100035.32;1767122;80;21083;-63
2021/08/29 11:41:16;;;;;;;25.02;14.53;;;;;;;29.04;57.36;100036.64;1745547;81;20976;-61
2021/08/29 11:44:06;;;;;;;17.40;13.10;;;;;;;29.03;57.40;100033.55;1739641;81;20949;-61
2021/08/29 11:46:38;;;;;;;21.82;13.90;;;;;;;29.04;56.90;100036.64;1694349;81;21465;-61
2021/08/29 11:49:08;;;;;;;19.75;13.48;;;;;;;29.12;56.11;100042.06;1745966;81;21355;-61
2021/08/29 11:51:39;;;;;;;16.93;13.20;;;;;;;29.16;55.78;100043.38;1745782;81;21000;-63